Time;durP1;ratioP1;P1;durP2;ratioP2;P2;SDS_P1;SDS_P2;PMS_P1;PMS_P2;Temp;Humidity;BMP_temperature;BMP_pressure;BME280_temperature;BME280_humidity;BME280_pressure;Samples;Min_cycle;Max_cycle;Signal;HPM_P1;HPM_P2
2021/12/12 00:01:07;;;;;;;123.18;45.10;;;3.90;99.90;;;;;;4936792;28;20047;-94
2021/12/12 00:03:40;;;;;;;121.97;44.40;;;3.00;99.90;;;;;;4899415;28;20047;-94
2021/12/12 00:06:10;;;;;;;114.10;43.63;;;2.90;99.90;;;;;;4925392;28;20053;-95
2021/12/12 00:08:38;;;;;;;114.38;43.25;;;2.90;99.90;;;;;;4939473;28;20070;-93
2021/12/12 00:11:08;;;;;;;98.97;40.03;;;3.40;99.90;;;;;;4951167;28;20085;-96
2021/12/12 00:13:52;;;;;;;112.93;41.53;;;3.00;99.90;;;;;;4938805;28;20039;-94
2021/12/12 00:16:18;;;;;;;106.57;39.58;;;3.00;99.90;;;;;;4942664;28;20046;-95
2021/12/12 00:18:44;;;;;;;97.13;39.65;;;3.60;99.90;;;;;;4939897;28;20412;-94
2021/12/12 00:21:12;;;;;;;101.93;39.03;;;3.50;99.90;;;;;;4916426;28;20053;-95
2021/12/12 00:23:38;;;;;;;99.15;39.75;;;3.00;99.90;;;;;;4941589;28;20035;-96
2021/12/12 00:26:05;;;;;;;97.00;39.55;;;2.90;99.90;;;;;;4922659;29;20126;-94
2021/12/12 00:28:32;;;;;;;89.80;36.75;;;3.00;99.90;;;;;;4940081;28;20039;-95
2021/12/12 00:31:09;;;;;;;89.93;38.22;;;3.00;99.90;;;;;;4956676;28;20047;-95
2021/12/12 00:33:37;;;;;;;86.45;36.10;;;3.00;99.90;;;;;;4941083;28;20042;-94
2021/12/12 00:36:04;;;;;;;82.55;36.63;;;3.00;99.90;;;;;;4937336;28;20042;-94
2021/12/12 00:38:31;;;;;;;93.50;35.83;;;3.00;99.90;;;;;;4938304;28;20129;-95
2021/12/12 00:41:02;;;;;;;90.57;37.10;;;3.10;99.90;;;;;;4952665;28;20042;-94
2021/12/12 00:43:37;;;;;;;85.93;38.20;;;3.00;99.90;;;;;;4939739;28;20039;-94
2021/12/12 00:46:06;;;;;;;80.50;36.97;;;3.00;99.90;;;;;;4939417;28;20120;-94
2021/12/12 00:48:34;;;;;;;82.80;37.10;;;3.40;99.90;;;;;;4921790;29;20051;-94
2021/12/12 00:51:03;;;;;;;81.50;35.60;;;4.10;99.90;;;;;;4907280;29;20547;-94
2021/12/12 00:53:30;;;;;;;84.15;35.22;;;3.00;99.90;;;;;;4923009;29;20063;-93
2021/12/12 00:55:56;;;;;;;81.15;36.47;;;3.10;99.90;;;;;;4922497;29;20039;-95
2021/12/12 00:58:22;;;;;;;87.03;38.65;;;3.00;99.90;;;;;;4904228;29;20098;-96
2021/12/12 01:01:02;;;;;;;83.45;36.25;;;3.10;99.90;;;;;;4906143;29;20046;-95
2021/12/12 01:03:32;;;;;;;75.45;34.42;;;3.00;99.90;;;;;;4921504;29;20055;-94
2021/12/12 01:06:00;;;;;;;78.43;34.13;;;3.10;99.90;;;;;;4922552;29;20374;-95
2021/12/12 01:08:28;;;;;;;79.22;36.05;;;4.40;99.90;;;;;;4906318;29;20089;-93
2021/12/12 01:10:59;;;;;;;83.35;34.33;;;3.30;99.90;;;;;;4918133;29;20043;-95
2021/12/12 01:13:25;;;;;;;80.93;35.47;;;4.50;99.90;;;;;;4941312;29;20496;-93
2021/12/12 01:15:53;;;;;;;75.07;35.25;;;3.10;99.90;;;;;;4910937;29;20075;-94
2021/12/12 01:18:23;;;;;;;75.43;35.92;;;3.20;99.90;;;;;;4925874;29;20141;-94
2021/12/12 01:21:03;;;;;;;74.50;33.75;;;3.10;99.90;;;;;;4924517;29;20178;-93
2021/12/12 01:23:35;;;;;;;76.90;33.65;;;3.10;99.90;;;;;;4921919;29;20039;-95
2021/12/12 01:26:02;;;;;;;74.95;32.60;;;3.80;99.90;;;;;;4924327;29;20126;-94
2021/12/12 01:28:32;;;;;;;85.53;34.47;;;3.30;99.90;;;;;;4905467;28;20101;-95
2021/12/12 01:31:01;;;;;;;70.43;31.88;;;3.20;99.90;;;;;;4924106;29;20046;-95
2021/12/12 01:33:35;;;;;;;73.43;32.35;;;4.40;99.90;;;;;;4923152;29;20035;-95
2021/12/12 01:36:22;;;;;;;75.60;32.92;;;3.70;99.90;;;;;;4941278;29;20043;-95
2021/12/12 01:38:52;;;;;;;78.68;33.33;;;3.80;99.90;;;;;;4923246;29;20406;-94
2021/12/12 01:41:26;;;;;;;65.25;31.15;;;3.40;99.90;;;;;;4910328;29;20071;-93
2021/12/12 01:43:57;;;;;;;74.93;32.15;;;3.60;99.90;;;;;;4924710;29;20043;-95
2021/12/12 01:46:28;;;;;;;76.80;31.45;;;3.20;99.90;;;;;;4926252;28;20039;-94
2021/12/12 01:49:03;;;;;;;63.30;28.42;;;3.20;99.90;;;;;;4940502;28;20094;-94
2021/12/12 01:51:29;;;;;;;73.75;31.75;;;3.20;99.90;;;;;;4956360;28;20039;-93
2021/12/12 01:53:58;;;;;;;75.38;32.38;;;3.30;99.90;;;;;;4935880;28;20149;-95
2021/12/12 01:56:53;;;;;;;72.32;29.15;;;3.30;99.90;;;;;;4954597;28;20043;-95
2021/12/12 01:59:22;;;;;;;58.15;28.48;;;3.30;99.90;;;;;;4958054;28;20093;-94
2021/12/12 02:02:04;;;;;;;62.60;30.02;;;3.30;99.90;;;;;;4938257;28;20047;-93
2021/12/12 02:04:34;;;;;;;67.97;29.85;;;3.30;99.90;;;;;;4943371;28;20039;-93
2021/12/12 02:07:02;;;;;;;62.50;30.88;;;3.30;99.90;;;;;;4945142;28;20046;-93
2021/12/12 02:09:29;;;;;;;59.53;29.23;;;3.30;99.90;;;;;;4943091;28;20480;-93
2021/12/12 02:11:58;;;;;;;54.75;27.50;;;4.00;99.90;;;;;;4950142;28;20058;-95
2021/12/12 02:14:26;;;;;;;71.15;29.98;;;3.30;99.90;;;;;;4941616;28;20089;-94
2021/12/12 02:16:58;;;;;;;59.92;28.42;;;4.30;99.90;;;;;;4932237;28;20531;-94
2021/12/12 02:19:46;;;;;;;64.25;29.05;;;3.40;99.90;;;;;;4937106;28;20035;-94
2021/12/12 02:22:52;;;;;;;63.08;26.23;;;4.10;99.90;;;;;;4957418;28;20501;-94
2021/12/12 02:35:59;;;;;;;59.60;25.80;;;3.30;99.90;;;;;;4939219;28;20133;-94
2021/12/12 02:38:30;;;;;;;62.83;27.83;;;4.40;99.90;;;;;;4917520;28;20434;-93
2021/12/12 02:41:01;;;;;;;55.83;25.67;;;3.40;99.90;;;;;;4938755;28;20049;-93
2021/12/12 02:43:33;;;;;;;67.15;27.70;;;3.40;99.90;;;;;;4937740;28;20039;-93
2021/12/12 02:45:59;;;;;;;61.03;27.38;;;4.10;99.90;;;;;;4947097;28;20050;-93
2021/12/12 02:48:32;;;;;;;72.03;27.05;;;3.40;99.90;;;;;;4938036;28;20055;-94
2021/12/12 02:51:02;;;;;;;60.38;26.98;;;3.40;99.90;;;;;;4938617;28;20051;-94
2021/12/12 02:53:40;;;;;;;56.28;24.63;;;4.20;99.90;;;;;;4936904;28;20396;-93
2021/12/12 02:56:18;;;;;;;53.45;25.17;;;3.40;99.90;;;;;;4939061;28;20043;-92
2021/12/12 02:58:45;;;;;;;58.95;24.60;;;3.40;99.90;;;;;;4952044;28;20039;-94
2021/12/12 03:01:40;;;;;;;53.50;25.55;;;4.50;99.90;;;;;;4923292;28;20037;-93
2021/12/12 03:04:05;;;;;;;64.10;26.15;;;3.40;99.90;;;;;;4932658;28;20074;-93
2021/12/12 03:06:34;;;;;;;56.60;25.20;;;4.10;99.90;;;;;;4924550;28;20126;-93
2021/12/12 03:09:05;;;;;;;46.10;22.95;;;3.50;99.90;;;;;;4935395;28;20050;-93
2021/12/12 03:11:31;;;;;;;52.20;24.00;;;3.50;99.90;;;;;;4940702;28;20043;-93
2021/12/12 03:13:57;;;;;;;57.80;24.63;;;3.50;99.90;;;;;;4955673;28;20289;-94
2021/12/12 03:16:24;;;;;;;52.30;23.95;;;3.50;99.90;;;;;;4936140;28;20116;-93
2021/12/12 03:18:50;;;;;;;59.20;25.38;;;4.60;99.90;;;;;;4938414;28;20106;-93
2021/12/12 03:21:32;;;;;;;51.78;24.35;;;3.50;99.90;;;;;;4933118;28;20137;-94
2021/12/12 03:24:08;;;;;;;48.05;24.90;;;4.10;99.90;;;;;;4937493;28;20109;-93
2021/12/12 03:26:36;;;;;;;43.50;22.48;;;3.50;99.90;;;;;;4940439;28;20049;-94
2021/12/12 03:29:06;;;;;;;56.55;24.27;;;3.50;99.90;;;;;;4928392;28;20066;-94
2021/12/12 03:31:42;;;;;;;57.58;24.80;;;4.30;99.90;;;;;;4946225;28;20034;-93
2021/12/12 03:34:13;;;;;;;54.17;23.48;;;4.20;99.90;;;;;;4935968;28;20166;-94
2021/12/12 03:36:40;;;;;;;50.13;23.88;;;4.40;99.90;;;;;;4939520;28;20039;-93
2021/12/12 03:39:39;;;;;;;47.58;23.65;;;4.50;99.90;;;;;;4924926;28;20119;-95
2021/12/12 03:42:13;;;;;;;44.38;22.10;;;4.40;99.90;;;;;;4922441;28;20122;-94
2021/12/12 03:44:40;;;;;;;48.45;23.50;;;4.20;99.90;;;;;;4953883;28;21575;-94
2021/12/12 03:47:11;;;;;;;49.78;23.30;;;3.60;99.90;;;;;;4926965;28;20122;-95
2021/12/12 03:49:37;;;;;;;51.83;23.73;;;3.60;99.90;;;;;;4941700;28;20034;-96
2021/12/12 03:52:06;;;;;;;50.30;24.63;;;3.60;99.90;;;;;;4942122;28;20101;-94
2021/12/12 03:54:33;;;;;;;55.90;23.13;;;3.60;99.90;;;;;;4944003;28;20078;-94
2021/12/12 03:56:59;;;;;;;56.10;22.83;;;3.70;99.90;;;;;;4925858;28;20035;-94
2021/12/12 03:59:25;;;;;;;39.95;20.70;;;3.70;99.90;;;;;;4932311;28;20124;-94
2021/12/12 04:01:52;;;;;;;50.25;22.50;;;3.90;99.90;;;;;;4950002;28;20034;-95
2021/12/12 04:04:26;;;;;;;46.15;20.42;;;4.80;99.90;;;;;;4940087;28;20114;-94
2021/12/12 04:06:53;;;;;;;52.83;22.73;;;4.50;99.90;;;;;;4940072;28;20539;-95
2021/12/12 04:09:20;;;;;;;51.22;22.38;;;4.10;99.90;;;;;;4927490;28;20396;-95
2021/12/12 04:11:55;;;;;;;47.70;21.75;;;4.30;99.90;;;;;;4927060;28;20057;-95
2021/12/12 04:14:22;;;;;;;50.38;21.80;;;3.70;99.90;;;;;;4936824;28;20477;-95
2021/12/12 04:16:56;;;;;;;45.78;21.13;;;4.10;99.90;;;;;;4927858;28;20034;-95
2021/12/12 04:19:23;;;;;;;40.38;19.70;;;3.70;99.90;;;;;;4943261;28;20066;-94
2021/12/12 04:21:49;;;;;;;44.63;20.23;;;4.50;99.90;;;;;;4942258;28;20452;-96
2021/12/12 04:24:22;;;;;;;48.50;21.30;;;3.70;99.90;;;;;;4941615;28;20047;-95
2021/12/12 04:26:49;;;;;;;37.22;19.45;;;4.60;99.90;;;;;;4946146;28;20038;-95
2021/12/12 04:29:19;;;;;;;46.05;21.63;;;4.30;99.90;;;;;;4925208;28;20065;-95
2021/12/12 04:31:50;;;;;;;43.08;20.50;;;3.80;99.90;;;;;;4938346;28;20042;-95
2021/12/12 04:34:20;;;;;;;41.35;20.00;;;3.90;99.90;;;;;;4954119;28;20039;-95
2021/12/12 04:36:47;;;;;;;41.53;18.42;;;3.80;99.90;;;;;;4933302;29;20089;-95
2021/12/12 04:39:18;;;;;;;42.88;21.65;;;4.20;99.90;;;;;;4956500;28;20046;-95
2021/12/12 04:41:46;;;;;;;41.47;20.10;;;4.50;99.90;;;;;;4949463;28;20061;-96
2021/12/12 04:44:12;;;;;;;37.95;20.20;;;4.70;99.90;;;;;;4948045;28;20067;-93
2021/12/12 04:49:56;;;;;;;44.47;20.88;;;4.80;99.90;;;;;;4955693;28;20051;-95
2021/12/12 04:52:50;;;;;;;44.10;18.38;;;4.30;99.90;;;;;;4929036;28;20043;-95
2021/12/12 04:55:29;;;;;;;34.78;18.13;;;4.00;99.90;;;;;;4955657;28;20130;-95
2021/12/12 04:58:09;;;;;;;30.42;17.70;;;4.00;99.90;;;;;;4941587;28;20042;-94
2021/12/12 05:00:50;;;;;;;35.38;16.63;;;4.00;99.90;;;;;;4973013;28;20090;-96
2021/12/12 05:03:23;;;;;;;31.08;17.25;;;4.00;99.90;;;;;;4951311;28;20035;-96
2021/12/12 05:06:01;;;;;;;34.00;17.08;;;4.30;99.90;;;;;;4940076;28;20492;-95
2021/12/12 05:08:44;;;;;;;37.42;16.80;;;5.00;99.90;;;;;;4939700;28;20061;-95
2021/12/12 05:11:18;;;;;;;28.65;15.15;;;4.10;99.90;;;;;;4938320;29;20035;-94
2021/12/12 05:13:50;;;;;;;29.25;13.73;;;4.60;99.90;;;;;;4953277;28;20093;-94
2021/12/12 05:16:22;;;;;;;27.42;14.65;;;4.80;99.90;;;;;;4940197;28;20131;-92
2021/12/12 05:18:51;;;;;;;30.17;15.10;;;4.60;99.90;;;;;;4952870;28;20118;-93
2021/12/12 05:21:31;;;;;;;24.98;13.80;;;4.20;99.90;;;;;;4954893;28;20042;-93
2021/12/12 05:24:00;;;;;;;28.17;14.00;;;4.20;99.90;;;;;;4953361;28;20134;-92
2021/12/12 05:26:32;;;;;;;27.27;14.90;;;4.20;99.90;;;;;;4937890;28;20101;-93
2021/12/12 05:29:03;;;;;;;25.00;13.50;;;4.20;99.90;;;;;;4939961;28;20035;-95
2021/12/12 05:31:30;;;;;;;28.55;14.10;;;4.20;99.90;;;;;;4955214;28;20057;-94
2021/12/12 05:33:57;;;;;;;22.77;13.25;;;5.10;99.90;;;;;;4924202;28;20475;-94
2021/12/12 05:36:23;;;;;;;26.05;13.32;;;4.20;99.90;;;;;;4945306;28;20061;-96
2021/12/12 05:38:49;;;;;;;27.63;13.65;;;4.20;99.90;;;;;;4921742;28;20070;-96
2021/12/12 05:41:20;;;;;;;21.90;12.77;;;4.20;99.90;;;;;;4925633;28;20046;-95
2021/12/12 05:43:47;;;;;;;23.75;11.65;;;4.20;99.90;;;;;;4951010;28;20046;-94
2021/12/12 05:46:18;;;;;;;24.88;14.48;;;4.60;99.90;;;;;;4934650;29;20039;-96
2021/12/12 05:48:45;;;;;;;21.10;12.18;;;4.20;99.90;;;;;;4941883;28;20046;-95
2021/12/12 05:51:11;;;;;;;22.08;12.90;;;4.20;99.90;;;;;;4936467;28;20054;-95
2021/12/12 05:53:37;;;;;;;22.27;13.13;;;4.20;99.90;;;;;;4940139;28;20039;-96
2021/12/12 05:56:05;;;;;;;25.42;12.15;;;4.20;99.90;;;;;;4949774;28;20034;-95
2021/12/12 05:58:31;;;;;;;20.63;11.52;;;4.30;99.90;;;;;;4929073;28;20034;-96
2021/12/12 06:01:03;;;;;;;20.20;11.60;;;5.30;99.90;;;;;;4929820;28;20043;-95
2021/12/12 06:03:33;;;;;;;14.65;8.45;;;4.30;99.90;;;;;;4945892;28;20047;-95
2021/12/12 06:06:02;;;;;;;16.48;10.82;;;4.30;99.90;;;;;;4948511;28;20053;-96
2021/12/12 06:08:29;;;;;;;19.88;11.43;;;4.40;99.90;;;;;;4955367;28;20039;-95
2021/12/12 06:10:55;;;;;;;15.82;10.30;;;4.70;99.90;;;;;;4928704;28;20066;-94
2021/12/12 06:13:23;;;;;;;14.07;9.23;;;5.30;99.90;;;;;;4927962;29;20039;-96
2021/12/12 06:15:53;;;;;;;19.27;10.18;;;4.80;99.90;;;;;;4944167;28;20328;-95
2021/12/12 06:18:22;;;;;;;18.25;9.07;;;5.00;99.90;;;;;;4931460;29;20044;-96
2021/12/12 06:20:48;;;;;;;16.75;10.20;;;4.40;99.90;;;;;;4960408;28;20084;-96
2021/12/12 06:23:16;;;;;;;15.35;9.45;;;5.40;99.90;;;;;;4931575;28;20130;-96
2021/12/12 06:25:43;;;;;;;15.23;9.57;;;4.40;99.90;;;;;;4933268;28;20039;-95
2021/12/12 06:28:13;;;;;;;18.63;10.43;;;4.40;99.90;;;;;;4929861;29;20040;-96
2021/12/12 06:30:39;;;;;;;16.20;9.98;;;4.40;99.90;;;;;;4946416;28;20042;-96
2021/12/12 06:33:05;;;;;;;15.27;9.35;;;4.40;99.90;;;;;;4930924;28;20043;-94
2021/12/12 06:35:32;;;;;;;17.13;10.48;;;5.20;99.90;;;;;;4945976;28;20106;-95
2021/12/12 06:38:07;;;;;;;15.60;9.65;;;4.40;99.90;;;;;;4943993;28;20035;-93
2021/12/12 06:40:33;;;;;;;14.32;9.10;;;5.50;99.90;;;;;;4957893;28;20038;-93
2021/12/12 06:43:02;;;;;;;16.05;10.20;;;4.40;99.90;;;;;;4934850;28;20039;-92
2021/12/12 06:45:28;;;;;;;18.58;9.88;;;4.40;99.90;;;;;;4948701;28;20074;-93
2021/12/12 06:47:55;;;;;;;16.92;10.25;;;4.40;99.90;;;;;;4931130;28;20094;-92
2021/12/12 06:50:22;;;;;;;16.08;9.80;;;4.40;99.90;;;;;;4925528;28;20526;-94
2021/12/12 06:52:48;;;;;;;14.13;9.68;;;4.90;99.90;;;;;;4927739;28;20400;-96
2021/12/12 06:55:14;;;;;;;14.93;10.10;;;4.40;99.90;;;;;;4929257;28;20031;-93
2021/12/12 06:57:42;;;;;;;17.15;9.93;;;5.00;99.90;;;;;;4957703;28;20042;-94
2021/12/12 07:00:15;;;;;;;15.13;9.70;;;4.30;99.90;;;;;;4962316;28;20695;-95
2021/12/12 07:02:43;;;;;;;17.15;10.85;;;4.40;99.90;;;;;;4943702;28;20042;-94
2021/12/12 07:05:16;;;;;;;17.67;11.48;;;4.50;99.90;;;;;;4954952;28;20065;-95
2021/12/12 07:07:44;;;;;;;14.30;9.20;;;4.40;99.90;;;;;;4960255;28;20042;-95
2021/12/12 07:10:11;;;;;;;19.35;11.40;;;5.10;99.90;;;;;;4958480;28;20062;-93
2021/12/12 07:12:39;;;;;;;18.15;11.40;;;4.50;99.90;;;;;;4958413;28;20035;-94
2021/12/12 07:15:10;;;;;;;19.85;11.55;;;5.20;99.90;;;;;;4930745;28;20038;-95
2021/12/12 07:17:36;;;;;;;20.83;11.90;;;4.50;99.90;;;;;;4952049;28;20504;-93
2021/12/12 07:20:06;;;;;;;19.15;11.15;;;4.50;99.90;;;;;;4943810;28;20122;-94
2021/12/12 07:22:33;;;;;;;17.33;10.95;;;4.50;99.90;;;;;;4954306;28;20041;-93
2021/12/12 07:25:00;;;;;;;18.20;11.90;;;4.50;99.90;;;;;;4947067;28;20176;-95
2021/12/12 07:27:26;;;;;;;18.85;12.00;;;5.30;99.90;;;;;;4957566;28;20035;-94
2021/12/12 07:29:55;;;;;;;21.70;13.50;;;4.60;99.90;;;;;;4927513;28;20043;-94
2021/12/12 07:32:26;;;;;;;19.20;10.80;;;4.50;99.90;;;;;;4950998;28;20043;-94
2021/12/12 07:34:53;;;;;;;21.52;13.02;;;4.70;99.90;;;;;;4959427;28;20047;-94
2021/12/12 07:37:20;;;;;;;19.92;12.32;;;5.80;99.90;;;;;;4943216;28;20039;-94
2021/12/12 07:39:48;;;;;;;18.70;12.10;;;4.70;99.90;;;;;;4926554;28;20035;-95
2021/12/12 07:42:16;;;;;;;25.15;13.57;;;5.30;99.90;;;;;;4929066;28;20150;-93
2021/12/12 07:44:44;;;;;;;19.23;12.07;;;5.80;99.90;;;;;;4947113;28;20042;-94
2021/12/12 07:47:13;;;;;;;19.50;12.95;;;4.70;99.90;;;;;;4941382;28;20130;-93
2021/12/12 07:49:43;;;;;;;23.10;12.70;;;5.60;99.90;;;;;;4925980;28;20077;-92
2021/12/12 07:52:14;;;;;;;24.05;13.68;;;4.70;99.90;;;;;;4940517;28;20040;-93
2021/12/12 07:54:40;;;;;;;19.20;11.70;;;4.70;99.90;;;;;;4938934;28;20039;-94
2021/12/12 07:57:07;;;;;;;21.98;13.82;;;4.80;99.90;;;;;;4950229;28;20082;-93
2021/12/12 07:59:34;;;;;;;22.15;13.45;;;4.70;99.90;;;;;;4929223;28;20046;-92
2021/12/12 08:02:02;;;;;;;21.08;12.80;;;5.40;99.90;;;;;;4937603;28;20046;-94
2021/12/12 08:04:30;;;;;;;21.00;12.35;;;4.80;99.90;;;;;;4940911;28;20074;-93
2021/12/12 08:06:57;;;;;;;21.23;11.98;;;5.80;99.90;;;;;;4939496;28;20113;-93
2021/12/12 08:09:24;;;;;;;22.20;13.65;;;4.80;99.90;;;;;;4910356;29;20094;-93
2021/12/12 08:11:52;;;;;;;20.42;11.85;;;4.90;99.90;;;;;;4940815;29;20043;-94
2021/12/12 08:14:24;;;;;;;20.73;11.95;;;5.60;99.90;;;;;;4926657;28;20042;-95
2021/12/12 08:16:51;;;;;;;;;;;4.90;99.90;;;;;;4952377;28;20070;-96
2021/12/12 08:19:19;;;;;;;21.38;11.73;;;5.00;99.90;;;;;;4952176;28;20015;-96
2021/12/12 08:21:47;;;;;;;19.55;12.57;;;5.80;99.90;;;;;;4934428;28;20457;-96
2021/12/12 08:24:14;;;;;;;18.05;12.07;;;5.00;99.90;;;;;;4929215;28;20130;-94
2021/12/12 08:26:42;;;;;;;22.00;12.95;;;5.00;99.90;;;;;;4929234;29;20045;-93
2021/12/12 08:29:10;;;;;;;24.27;13.38;;;5.00;99.90;;;;;;4931420;29;20045;-94
2021/12/12 08:31:36;;;;;;;23.75;13.07;;;5.00;99.90;;;;;;4910058;28;20503;-94
2021/12/12 08:34:06;;;;;;;18.02;10.82;;;5.00;99.90;;;;;;4939524;28;20039;-93
2021/12/12 08:36:34;;;;;;;17.98;10.68;;;5.00;99.90;;;;;;4966214;28;20168;-92
2021/12/12 08:39:00;;;;;;;21.20;12.07;;;5.30;99.90;;;;;;4948909;28;20042;-94
2021/12/12 08:41:26;;;;;;;21.00;12.48;;;5.30;99.90;;;;;;4929712;28;20034;-94
2021/12/12 08:43:52;;;;;;;20.08;12.52;;;5.10;99.90;;;;;;4924269;28;20047;-93
2021/12/12 08:46:19;;;;;;;23.92;14.00;;;5.10;99.90;;;;;;4931877;28;20089;-93
2021/12/12 08:48:49;;;;;;;22.45;13.75;;;5.20;99.90;;;;;;4945421;28;20050;-93
2021/12/12 08:51:29;;;;;;;21.58;12.48;;;5.20;99.90;;;;;;4942213;28;20089;-93
2021/12/12 08:53:56;;;;;;;28.65;15.48;;;5.20;99.90;;;;;;4937986;28;20415;-93
2021/12/12 08:56:41;;;;;;;28.25;15.55;;;5.30;99.90;;;;;;4925216;28;20038;-92
2021/12/12 08:59:08;;;;;;;29.75;16.13;;;5.20;99.90;;;;;;4940837;28;21016;-92
2021/12/12 09:01:36;;;;;;;30.55;14.88;;;5.30;99.90;;;;;;4921468;28;20074;-94
2021/12/12 09:04:03;;;;;;;25.98;14.95;;;5.30;99.90;;;;;;4940490;28;20488;-95
2021/12/12 09:06:32;;;;;;;28.00;15.43;;;5.40;99.90;;;;;;4925726;28;20400;-92
2021/12/12 09:09:04;;;;;;;26.58;14.70;;;5.40;99.90;;;;;;4953825;28;20186;-96
2021/12/12 09:11:47;;;;;;;24.63;14.02;;;5.40;99.90;;;;;;4963051;28;20043;-96
2021/12/12 09:14:19;;;;;;;29.40;15.20;;;5.50;99.90;;;;;;4945597;28;20042;-95
2021/12/12 09:16:53;;;;;;;25.83;15.27;;;5.50;99.90;;;;;;4947315;28;20121;-96
2021/12/12 09:19:25;;;;;;;31.38;15.65;;;5.70;99.90;;;;;;4948304;28;20035;-95
2021/12/12 09:42:56;;;;;;;23.05;12.98;;;5.80;99.90;;;;;;4967937;28;20384;-96
2021/12/12 09:45:37;;;;;;;29.33;15.05;;;5.80;99.90;;;;;;4950833;29;20051;-95
2021/12/12 09:51:14;;;;;;;30.00;13.85;;;5.80;99.90;;;;;;4942384;29;20044;-95
2021/12/12 09:52:06;;;;;;;25.33;12.85;;;5.90;99.90;;;;;;4946158;29;20276;-96
2021/12/12 09:55:08;;;;;;;24.17;12.65;;;5.90;99.90;;;;;;4946684;29;20039;-96
2021/12/12 09:57:43;;;;;;;29.15;14.77;;;5.90;99.90;;;;;;4945661;29;20075;-96
2021/12/12 10:00:18;;;;;;;28.63;13.90;;;6.10;99.90;;;;;;4928039;29;20050;-96
2021/12/12 10:03:03;;;;;;;29.02;15.57;;;6.00;99.90;;;;;;4951175;29;20039;-96
2021/12/12 10:05:56;;;;;;;28.92;14.07;;;6.60;99.90;;;;;;4940549;29;20071;-95
2021/12/12 10:08:42;;;;;;;32.63;15.70;;;6.10;99.90;;;;;;4915988;29;20614;-94
2021/12/12 10:11:32;;;;;;;31.52;15.45;;;6.10;99.90;;;;;;4942611;29;20043;-96
2021/12/12 10:14:15;;;;;;;35.92;17.38;;;6.60;99.90;;;;;;4928843;29;20043;-94
2021/12/12 10:16:46;;;;;;;;;;;6.20;99.90;;;;;;4927448;29;20035;-96
2021/12/12 10:19:30;;;;;;;29.20;14.85;;;6.20;99.90;;;;;;4942541;29;19925;-95
2021/12/12 10:22:01;;;;;;;36.38;15.75;;;6.20;99.90;;;;;;4934096;29;20107;-92
2021/12/12 10:24:39;;;;;;;35.63;16.30;;;6.70;99.90;;;;;;4926491;29;20063;-95
2021/12/12 10:27:42;;;;;;;37.47;16.25;;;6.30;99.90;;;;;;4927065;29;20054;-93
2021/12/12 10:30:31;;;;;;;34.83;15.60;;;6.40;99.90;;;;;;4943299;29;20048;-94
2021/12/12 10:33:15;;;;;;;39.40;17.58;;;6.50;99.90;;;;;;4921296;29;20055;-94
2021/12/12 10:36:02;;;;;;;41.63;18.00;;;6.50;99.90;;;;;;4924579;29;20459;-96
2021/12/12 10:38:37;;;;;;;34.05;16.13;;;6.70;99.90;;;;;;4939122;29;20044;-95
2021/12/12 10:41:22;;;;;;;35.55;15.82;;;6.50;99.90;;;;;;4927954;29;20117;-95
2021/12/12 10:44:21;;;;;;;37.22;16.13;;;6.60;99.90;;;;;;4931216;29;20632;-96
2021/12/12 10:46:54;;;;;;;30.55;14.23;;;6.60;99.90;;;;;;4926157;29;20067;-94
2021/12/12 10:49:35;;;;;;;33.60;16.10;;;6.70;99.90;;;;;;4928247;29;20046;-94
2021/12/12 10:52:06;;;;;;;33.30;15.38;;;6.70;99.90;;;;;;4925462;29;20043;-95
2021/12/12 10:54:49;;;;;;;31.17;15.00;;;6.70;99.90;;;;;;4946450;29;20099;-94
2021/12/12 10:57:19;;;;;;;28.10;14.68;;;6.80;99.90;;;;;;4924791;29;20054;-96
2021/12/12 10:59:55;;;;;;;29.08;14.02;;;6.80;99.90;;;;;;4927384;29;20031;-95
2021/12/12 11:02:28;;;;;;;27.25;14.43;;;7.50;99.90;;;;;;4928351;29;20043;-93
2021/12/12 11:05:11;;;;;;;27.13;14.75;;;7.30;99.90;;;;;;4929681;29;20137;-94
2021/12/12 11:07:53;;;;;;;26.65;13.82;;;6.90;99.90;;;;;;4928183;29;20039;-94
2021/12/12 11:10:27;;;;;;;28.10;14.68;;;7.00;99.90;;;;;;4928145;29;20127;-93
2021/12/12 11:13:03;;;;;;;30.35;14.70;;;7.00;99.90;;;;;;4927061;29;20039;-95
2021/12/12 11:15:47;;;;;;;25.30;13.40;;;7.60;99.90;;;;;;4926750;29;20035;-93
2021/12/12 11:18:28;;;;;;;25.45;12.38;;;7.10;99.90;;;;;;4923987;29;20035;-95
2021/12/12 11:21:21;;;;;;;25.25;13.27;;;7.10;99.90;;;;;;4937798;29;20129;-94
2021/12/12 11:24:01;;;;;;;27.60;13.63;;;7.20;99.90;;;;;;4927253;29;20047;-95
2021/12/12 11:26:35;;;;;;;22.73;12.13;;;7.20;99.90;;;;;;4937288;29;20044;-93
2021/12/12 11:29:10;;;;;;;24.80;12.85;;;7.30;99.90;;;;;;4950872;29;20197;-96
2021/12/12 11:31:54;;;;;;;24.70;12.27;;;7.30;99.90;;;;;;4938750;29;20524;-93
2021/12/12 11:34:27;;;;;;;21.30;11.07;;;7.30;99.90;;;;;;4960480;23;20059;-96
2021/12/12 11:37:05;;;;;;;19.45;11.07;;;7.40;99.90;;;;;;4929084;29;20103;-96
2021/12/12 11:40:01;;;;;;;18.23;10.57;;;6.30;99.90;;;;;;4937045;29;20048;-96
2021/12/12 11:45:24;;;;;;;19.27;11.23;;;7.40;99.90;;;;;;5049517;23;20043;-96
2021/12/12 11:48:35;;;;;;;21.52;10.90;;;7.40;99.90;;;;;;4936793;28;20046;-95
2021/12/12 11:51:11;;;;;;;22.17;11.57;;;7.30;99.90;;;;;;4936479;29;20126;-95
2021/12/12 11:53:43;;;;;;;22.17;11.95;;;7.40;99.90;;;;;;4929997;29;20050;-96
2021/12/12 11:56:35;;;;;;;22.52;12.77;;;7.40;99.90;;;;;;4917207;29;20042;-96
2021/12/12 11:59:34;;;;;;;22.13;11.57;;;7.30;99.90;;;;;;4931817;29;20046;-96
2021/12/12 12:02:24;;;;;;;22.15;12.45;;;7.40;99.90;;;;;;4930541;29;20050;-96
2021/12/12 12:05:08;;;;;;;24.63;10.88;;;7.40;99.90;;;;;;4935335;29;20045;-96
2021/12/12 12:07:36;;;;;;;20.73;11.27;;;7.40;99.90;;;;;;4919942;29;20043;-95
2021/12/12 12:10:34;;;;;;;21.20;11.30;;;7.40;99.90;;;;;;4940160;29;20039;-96
2021/12/12 12:13:20;;;;;;;21.45;10.93;;;7.50;99.90;;;;;;4903211;29;20050;-96
2021/12/12 12:16:13;;;;;;;18.55;10.23;;;7.50;99.90;;;;;;4931655;29;20070;-96
2021/12/12 12:18:38;;;;;;;;;;;7.60;99.90;;;;;;4919975;29;20130;-96
2021/12/12 12:21:21;;;;;;;16.88;10.40;;;7.60;99.90;;;;;;4927030;29;20376;-96
2021/12/12 12:26:51;;;;;;;20.52;10.80;;;7.70;99.90;;;;;;4937798;29;20534;-95
2021/12/12 12:29:32;;;;;;;19.70;11.20;;;7.60;99.90;;;;;;4925437;29;20134;-95
2021/12/12 12:32:19;;;;;;;19.58;11.23;;;7.70;99.90;;;;;;4933160;29;20040;-96
2021/12/12 12:35:19;;;;;;;21.58;11.30;;;7.70;99.90;;;;;;4924056;29;20071;-96
2021/12/12 12:38:22;;;;;;;23.25;12.13;;;7.70;99.90;;;;;;4926560;29;20493;-96
2021/12/12 12:41:26;;;;;;;18.65;11.60;;;7.70;99.90;;;;;;4923957;29;20071;-96
2021/12/12 12:44:29;;;;;;;23.58;12.10;;;7.70;99.90;;;;;;4940142;29;20051;-96
2021/12/12 12:47:23;;;;;;;21.58;11.88;;;7.70;99.90;;;;;;4923977;29;20055;-96
2021/12/12 12:50:03;;;;;;;24.85;12.93;;;7.70;99.90;;;;;;4925716;28;20036;-96
2021/12/12 12:53:07;;;;;;;24.80;13.32;;;7.80;99.90;;;;;;4929892;29;20050;-96
2021/12/12 12:55:38;;;;;;;28.40;13.88;;;7.80;99.90;;;;;;4925799;29;20039;-96
2021/12/12 12:58:19;;;;;;;27.27;14.23;;;7.80;99.90;;;;;;4933582;28;20070;-96
2021/12/12 13:00:50;;;;;;;29.33;14.13;;;7.10;99.90;;;;;;4933950;29;20047;-96
2021/12/12 13:03:52;;;;;;;29.77;15.15;;;7.80;99.90;;;;;;4931791;29;20043;-96
2021/12/12 13:06:57;;;;;;;31.02;15.18;;;7.90;99.90;;;;;;4946703;28;20119;-96
2021/12/12 13:09:44;;;;;;;28.75;15.07;;;7.90;99.90;;;;;;4949957;29;20058;-96
2021/12/12 13:12:28;;;;;;;24.30;13.35;;;7.90;99.90;;;;;;4949439;29;20051;-96
2021/12/12 13:15:08;;;;;;;30.85;13.18;;;7.90;99.90;;;;;;4940435;29;20039;-96
2021/12/12 13:18:07;;;;;;;30.35;15.55;;;7.90;99.90;;;;;;4942054;29;20039;-96
2021/12/12 13:20:48;;;;;;;34.20;15.15;;;8.00;99.90;;;;;;4934235;29;20185;-96
2021/12/12 13:23:37;;;;;;;31.33;15.25;;;7.70;99.90;;;;;;4937512;28;20114;-96
2021/12/12 13:26:12;;;;;;;35.15;16.67;;;8.00;99.90;;;;;;4947121;29;20075;-96
2021/12/12 13:28:47;;;;;;;37.28;17.23;;;8.10;99.90;;;;;;4935281;29;20039;-96
2021/12/12 13:31:20;;;;;;;36.25;16.60;;;8.00;99.90;;;;;;4943235;29;20163;-96
2021/12/12 13:33:58;;;;;;;;;;;8.10;99.90;;;;;;4936851;29;20072;-96
2021/12/12 13:37:02;;;;;;;40.88;15.80;;;8.10;99.90;;;;;;4929705;29;19919;-96
2021/12/12 13:40:02;;;;;;;44.97;16.80;;;8.00;99.90;;;;;;4952872;29;20062;-96
2021/12/12 13:42:37;;;;;;;40.28;17.50;;;8.00;99.90;;;;;;4950692;29;20063;-96
2021/12/12 13:45:59;;;;;;;48.13;18.02;;;8.70;99.90;;;;;;4947285;29;20054;-96
2021/12/12 13:48:48;;;;;;;36.63;15.73;;;7.40;99.90;;;;;;4937387;29;20074;-96
2021/12/12 13:51:33;;;;;;;41.13;17.27;;;8.10;99.90;;;;;;4943530;29;20067;-96
2021/12/12 13:54:25;;;;;;;47.47;18.65;;;8.20;99.90;;;;;;4958002;29;20063;-96
2021/12/12 13:57:10;;;;;;;41.20;17.05;;;8.20;99.90;;;;;;4946281;29;20051;-96